Terminal Aerodrome Forecast
Issued by NWS

Home | Current Version | Previous Version | Text Only | Print | Product List | Glossary On
Versions: 1 2 3 4 5 6 7 8 9 10 11 12 13 14 15 16 17 18 19 20 21 22 23 24 25 26 27 28 29
000
FTAK31 PAFA 300044 AAA
TAFAOR
TAF AMD
PAOR 300044Z 3001/3024 21010KT P6SM -SHRA BKN035 OVC070
      TEMPO 3001/3003 1 1/2SM -RA BR SCT020 BKN035 OVC060
     FM300600 30005KT P6SM OVC050=

USA.gov is the U.S. government's official web portal to all federal, state and local government web resources and services.